createdAt,value
2018-02-24T00:01:11.639Z,-0.50
2018-02-24T00:03:38.667Z,-0.50
2018-02-24T00:06:05.640Z,-0.50
2018-02-24T00:08:32.620Z,-0.50
2018-02-24T00:10:59.655Z,-0.60
2018-02-24T00:13:26.635Z,-0.60
2018-02-24T00:15:53.602Z,-0.60
2018-02-24T00:18:20.590Z,-0.60
2018-02-24T00:20:47.563Z,-0.60
2018-02-24T00:23:14.547Z,-0.70
2018-02-24T00:25:41.587Z,-0.70
2018-02-24T00:28:08.659Z,-0.80
2018-02-24T00:30:35.718Z,-0.80
2018-02-24T00:33:02.860Z,-0.80
2018-02-24T00:35:30.579Z,-0.90
2018-02-24T00:37:57.559Z,-0.90
2018-02-24T00:40:24.533Z,-0.90
2018-02-24T00:42:52.283Z,-0.90
2018-02-24T00:45:19.254Z,-1.00
2018-02-24T00:47:47.003Z,-0.90
2018-02-24T00:50:14.051Z,-1.00
2018-02-24T00:52:41.027Z,-1.00
2018-02-24T00:55:08.069Z,-1.00
2018-02-24T00:57:35.046Z,-1.00
2018-02-24T01:00:02.086Z,-1.00
2018-02-24T01:02:29.067Z,-1.00
2018-02-24T01:04:56.095Z,-1.00
2018-02-24T01:07:23.079Z,-1.00
2018-02-24T01:09:50.115Z,-1.10
2018-02-24T01:12:17.174Z,-1.10
2018-02-24T01:14:44.240Z,-1.10
2018-02-24T01:17:11.309Z,-1.10
2018-02-24T01:19:38.267Z,-1.20
2018-02-24T01:22:05.251Z,-1.20
2018-02-24T01:24:32.271Z,-1.20
2018-02-24T01:26:59.334Z,-1.20
2018-02-24T01:29:26.403Z,-1.20
2018-02-24T01:31:53.454Z,-1.20
2018-02-24T01:34:20.430Z,-1.20
2018-02-24T01:36:47.407Z,-1.30
2018-02-24T01:39:14.435Z,-1.30
2018-02-24T01:41:41.403Z,-1.20
2018-02-24T01:44:08.385Z,-1.20
2018-02-24T01:46:35.362Z,-1.30
2018-02-24T01:49:03.104Z,-1.30
2018-02-24T01:51:30.138Z,-1.30
2018-02-24T01:53:57.126Z,-1.30
2018-02-24T01:56:24.167Z,-1.40
2018-02-24T01:58:51.139Z,-1.40
2018-02-24T02:01:18.111Z,-1.40
2018-02-24T02:03:45.104Z,-1.40
2018-02-24T02:06:12.092Z,-1.40
2018-02-24T02:08:39.071Z,-1.40
2018-02-24T02:11:06.042Z,-1.50
2018-02-24T02:13:33.037Z,-1.50
2018-02-24T02:16:00.028Z,-1.50
2018-02-24T02:18:27.009Z,-1.50
2018-02-24T02:20:53.985Z,-1.50
2018-02-24T02:23:20.967Z,-1.50
2018-02-24T02:25:47.963Z,-1.50
2018-02-24T02:28:14.940Z,-1.50
2018-02-24T02:30:42.003Z,-1.50
2018-02-24T02:33:09.038Z,-1.60
2018-02-24T02:35:36.012Z,-1.60
2018-02-24T02:38:02.996Z,-1.60
2018-02-24T02:40:29.971Z,-1.60
2018-02-24T02:42:57.798Z,-1.60
2018-02-24T02:45:24.763Z,-1.70
2018-02-24T02:47:51.739Z,-1.70
2018-02-24T02:50:18.767Z,-1.70
2018-02-24T02:52:45.748Z,-1.70
2018-02-24T02:55:12.729Z,-1.80
2018-02-24T02:57:40.563Z,-1.80
2018-02-24T03:00:07.532Z,-1.80
2018-02-24T03:02:34.577Z,-1.80
2018-02-24T03:05:01.644Z,-1.80
2018-02-24T03:07:28.699Z,-1.90
2018-02-24T03:09:55.760Z,-1.90
2018-02-24T03:12:22.747Z,-1.90
2018-02-24T03:14:50.497Z,-1.90
2018-02-24T03:17:17.534Z,-1.90
2018-02-24T03:19:44.515Z,-1.90
2018-02-24T03:22:11.563Z,-1.90
2018-02-24T03:24:38.634Z,-1.90
2018-02-24T03:27:05.602Z,-1.90
2018-02-24T03:29:32.651Z,-2.00
2018-02-24T03:31:59.711Z,-2.00
2018-02-24T03:34:26.772Z,-2.00
2018-02-24T03:36:53.752Z,-2.00
2018-02-24T03:39:20.731Z,-2.00
2018-02-24T03:41:47.710Z,-2.10
2018-02-24T03:44:15.454Z,-2.10
2018-02-24T03:46:43.194Z,-2.10
2018-02-24T03:49:10.178Z,-2.20
2018-02-24T03:51:37.154Z,-2.10
2018-02-24T03:54:04.176Z,-2.10
2018-02-24T03:56:31.147Z,-2.10
2018-02-24T03:58:58.134Z,-2.10
2018-02-24T04:01:25.109Z,-2.10
2018-02-24T04:03:52.855Z,-2.10
2018-02-24T04:06:21.334Z,-2.20
2018-02-24T04:08:48.319Z,-2.20
2018-02-24T04:11:15.334Z,-2.20
2018-02-24T04:13:42.399Z,-2.20
2018-02-24T04:16:09.375Z,-2.20
2018-02-24T04:18:36.411Z,-2.20
2018-02-24T04:21:03.475Z,-2.20
2018-02-24T04:23:30.538Z,-2.20
2018-02-24T04:25:57.511Z,-2.20
2018-02-24T04:28:24.492Z,-2.20
2018-02-24T04:30:51.468Z,-2.20
2018-02-24T04:33:19.219Z,-2.30
2018-02-24T04:35:46.192Z,-2.30
2018-02-24T04:38:14.028Z,-2.30
2018-02-24T04:40:41.083Z,-2.30
2018-02-24T04:43:08.059Z,-2.30
2018-02-24T04:45:35.035Z,-2.20
2018-02-24T04:48:02.065Z,-2.30
2018-02-24T04:50:29.047Z,-2.30
2018-02-24T04:52:56.023Z,-2.30
2018-02-24T04:55:23.856Z,-2.30
2018-02-24T04:57:50.830Z,-2.40
2018-02-24T05:00:17.871Z,-2.30
2018-02-24T05:02:44.935Z,-2.40
2018-02-24T05:05:12.127Z,-2.40
2018-02-24T05:07:39.151Z,-2.40
2018-02-24T05:10:06.135Z,-2.40
2018-02-24T05:12:33.115Z,-2.40
2018-02-24T05:15:00.131Z,-2.40
2018-02-24T05:17:27.195Z,-2.50
2018-02-24T05:19:54.250Z,-2.50
2018-02-24T05:22:21.229Z,-2.50
2018-02-24T05:24:48.272Z,-2.50
2018-02-24T05:27:15.247Z,-2.50
2018-02-24T05:29:42.227Z,-2.50
2018-02-24T05:32:09.199Z,-2.50
2018-02-24T05:34:37.028Z,-2.50
2018-02-24T05:37:03.992Z,-2.50
2018-02-24T05:39:31.031Z,-2.50
2018-02-24T05:41:58.016Z,-2.50
2018-02-24T05:44:24.995Z,-2.50
2018-02-24T05:46:52.020Z,-2.60
2018-02-24T05:49:19.079Z,-2.60
2018-02-24T05:51:46.143Z,-2.60
2018-02-24T05:54:13.209Z,-2.60
2018-02-24T05:56:40.183Z,-2.60
2018-02-24T05:59:07.172Z,-2.60
2018-02-24T06:01:34.990Z,-2.60
2018-02-24T06:04:02.012Z,-2.60
2018-02-24T06:06:29.012Z,-2.60
2018-02-24T06:08:56.071Z,-2.60
2018-02-24T06:11:23.048Z,-2.60
2018-02-24T06:13:50.036Z,-2.60
2018-02-24T06:16:17.003Z,-2.60
2018-02-24T06:18:44.756Z,-2.70
2018-02-24T06:21:11.777Z,-2.70
2018-02-24T06:23:38.755Z,-2.70
2018-02-24T06:26:05.731Z,-2.70
2018-02-24T06:28:32.755Z,-2.70
2018-02-24T06:30:59.735Z,-2.70
2018-02-24T06:33:26.732Z,-2.70
2018-02-24T06:35:54.470Z,-2.70
2018-02-24T06:38:21.512Z,-2.70
2018-02-24T06:40:48.495Z,-2.70
2018-02-24T06:43:15.531Z,-2.70
2018-02-24T06:45:42.595Z,-2.60
2018-02-24T06:48:09.563Z,-2.70
2018-02-24T06:50:36.548Z,-2.60
2018-02-24T06:53:04.378Z,-2.60
2018-02-24T06:55:31.443Z,-2.60
2018-02-24T06:57:58.415Z,-2.50
2018-02-24T07:00:25.400Z,-2.50
2018-02-24T07:02:52.371Z,-2.50
2018-02-24T07:05:19.374Z,-2.50
2018-02-24T07:07:46.435Z,-2.40
2018-02-24T07:10:13.435Z,-2.40
2018-02-24T07:12:40.450Z,-2.40
2018-02-24T07:15:07.511Z,-2.40
2018-02-24T07:17:34.482Z,-2.40
2018-02-24T07:20:01.463Z,-2.30
2018-02-24T07:22:29.207Z,-2.30
2018-02-24T07:24:56.276Z,-2.30
2018-02-24T07:27:23.327Z,-2.30
2018-02-24T07:29:50.312Z,-2.20
2018-02-24T07:32:17.291Z,-2.20
2018-02-24T07:34:44.271Z,-2.10
2018-02-24T07:37:11.240Z,-2.00
2018-02-24T07:39:38.223Z,-2.00
2018-02-24T07:42:05.287Z,-1.90
2018-02-24T07:44:32.267Z,-1.90
2018-02-24T07:46:59.243Z,-1.80
2018-02-24T07:49:27.000Z,-1.70
2018-02-24T07:51:53.977Z,-1.70
2018-02-24T07:54:20.991Z,-1.70
2018-02-24T07:56:47.967Z,-1.60
2018-02-24T07:59:14.947Z,-1.50
2018-02-24T08:01:41.965Z,-1.40
2018-02-24T08:04:09.031Z,-1.40
2018-02-24T08:06:36.083Z,-1.30
2018-02-24T08:09:03.063Z,-1.20
2018-02-24T08:11:30.040Z,-1.20
2018-02-24T08:13:57.059Z,-1.10
2018-02-24T08:16:24.039Z,-1.00
2018-02-24T08:18:51.087Z,-1.00
2018-02-24T08:21:18.077Z,-0.90
2018-02-24T08:23:45.095Z,-0.90
2018-02-24T08:26:12.259Z,-0.80
2018-02-24T08:28:39.320Z,-0.80
2018-02-24T08:31:07.066Z,-0.60
2018-02-24T08:33:36.431Z,-0.50
2018-02-24T08:36:03.407Z,-0.50
2018-02-24T08:38:30.384Z,-0.40
2018-02-24T08:40:58.211Z,-0.30
2018-02-24T08:43:25.268Z,-0.30
2018-02-24T08:45:52.347Z,-0.20
2018-02-24T08:48:19.303Z,-0.10
2018-02-24T08:50:46.348Z,0.00
2018-02-24T08:53:13.336Z,0.00
2018-02-24T08:55:40.363Z,0.00
2018-02-24T08:58:07.428Z,0.10
2018-02-24T09:00:34.483Z,0.20
2018-02-24T09:03:01.455Z,0.20
2018-02-24T09:05:28.428Z,0.30
2018-02-24T09:07:55.459Z,0.40
2018-02-24T09:10:22.519Z,0.50
2018-02-24T09:12:49.487Z,0.60
2018-02-24T09:15:16.468Z,0.70
2018-02-24T09:17:43.439Z,0.80
2018-02-24T09:20:11.389Z,1.00
2018-02-24T09:22:38.436Z,1.00
2018-02-24T09:25:05.596Z,1.10
2018-02-24T09:27:32.567Z,1.20
2018-02-24T09:29:59.542Z,1.30
2018-02-24T09:32:26.517Z,1.40
2018-02-24T09:34:53.532Z,1.50
2018-02-24T09:37:20.499Z,1.60
2018-02-24T09:39:47.488Z,1.80
2018-02-24T09:42:14.518Z,2.00
2018-02-24T09:44:41.495Z,2.10
2018-02-24T09:47:08.483Z,2.20
2018-02-24T09:49:35.484Z,2.40
2018-02-24T09:52:02.451Z,2.50
2018-02-24T09:54:29.447Z,2.70
2018-02-24T09:56:57.184Z,3.00
2018-02-24T09:59:24.166Z,2.90
2018-02-24T10:01:51.200Z,3.20
2018-02-24T10:04:18.235Z,3.40
2018-02-24T10:06:46.027Z,3.80
2018-02-24T10:09:13.072Z,3.70
2018-02-24T10:11:40.872Z,4.00
2018-02-24T10:14:07.927Z,4.00
2018-02-24T10:16:34.986Z,4.20
2018-02-24T10:19:01.962Z,4.30
2018-02-24T10:21:28.933Z,4.40
2018-02-24T10:23:55.963Z,4.60
2018-02-24T10:26:23.030Z,4.70
2018-02-24T10:28:50.000Z,4.90
2018-02-24T10:31:16.984Z,4.90
2018-02-24T10:33:43.951Z,5.00
2018-02-24T10:36:11.787Z,5.40
2018-02-24T10:38:38.759Z,5.40
2018-02-24T10:41:05.741Z,5.70
2018-02-24T10:43:33.567Z,7.50
2018-02-24T10:46:00.547Z,7.50
2018-02-24T10:48:27.592Z,11.40
2018-02-24T10:50:54.580Z,15.10
2018-02-24T10:53:21.555Z,17.00
2018-02-24T10:55:49.388Z,15.00
2018-02-24T10:58:16.360Z,15.00
2018-02-24T11:00:43.343Z,16.00
2018-02-24T11:03:10.315Z,18.40
2018-02-24T11:05:38.139Z,20.50
2018-02-24T11:08:06.119Z,20.40
2018-02-24T11:10:33.178Z,19.40
2018-02-24T11:13:00.151Z,17.10
2018-02-24T11:15:27.191Z,14.20
2018-02-24T11:17:54.163Z,12.40
2018-02-24T11:20:21.152Z,11.00
2018-02-24T11:22:48.175Z,10.10
2018-02-24T11:25:15.235Z,9.40
2018-02-24T11:27:42.399Z,8.80
2018-02-24T11:30:09.375Z,8.60
2018-02-24T11:32:36.338Z,8.40
2018-02-24T11:35:03.321Z,8.30
2018-02-24T11:37:31.063Z,8.20
2018-02-24T11:39:58.108Z,8.20
2018-02-24T11:42:25.171Z,8.20
2018-02-24T11:44:52.139Z,8.20
2018-02-24T11:47:19.124Z,8.20
2018-02-24T11:49:46.859Z,8.40
2018-02-24T11:52:13.840Z,8.30
2018-02-24T11:54:40.882Z,8.40
2018-02-24T11:57:07.847Z,8.50
2018-02-24T11:59:34.819Z,8.60
2018-02-24T12:02:03.312Z,8.80
2018-02-24T12:04:30.345Z,8.80
2018-02-24T12:06:57.319Z,9.00
2018-02-24T12:09:24.298Z,9.10
2018-02-24T12:11:51.276Z,9.30
2018-02-24T12:14:19.095Z,9.50
2018-02-24T12:16:46.076Z,9.50
2018-02-24T12:19:13.177Z,9.70
2018-02-24T12:21:40.175Z,9.70
2018-02-24T12:24:07.152Z,9.80
2018-02-24T12:26:34.128Z,9.90
2018-02-24T12:29:01.099Z,10.00
2018-02-24T12:31:28.987Z,10.10
2018-02-24T12:33:55.915Z,10.10
2018-02-24T12:36:24.402Z,10.20
2018-02-24T12:38:51.375Z,10.20
2018-02-24T12:41:18.373Z,10.50
2018-02-24T12:43:46.108Z,11.40
2018-02-24T12:46:13.139Z,11.30
2018-02-24T12:48:40.120Z,12.40
2018-02-24T12:51:07.151Z,14.40
2018-02-24T12:53:34.124Z,16.80
2018-02-24T12:56:01.154Z,18.70
2018-02-24T12:58:28.863Z,21.10
2018-02-24T13:00:55.907Z,21.00
2018-02-24T13:03:22.976Z,21.30
2018-02-24T13:05:49.958Z,21.50
2018-02-24T13:08:16.932Z,22.00
2018-02-24T13:10:44.769Z,22.30
2018-02-24T13:13:11.803Z,22.30
2018-02-24T13:15:39.531Z,22.30
2018-02-24T13:18:06.501Z,22.30
2018-02-24T13:20:33.479Z,22.10
2018-02-24T13:23:01.223Z,22.70
2018-02-24T13:25:28.273Z,22.60
2018-02-24T13:27:55.232Z,22.20
2018-02-24T13:30:22.276Z,22.20
2018-02-24T13:32:49.251Z,22.30
2018-02-24T13:35:16.232Z,22.10
2018-02-24T13:37:43.979Z,22.20
2018-02-24T13:40:11.021Z,22.10
2018-02-24T13:42:38.003Z,21.80
2018-02-24T13:45:04.980Z,21.80
2018-02-24T13:47:31.975Z,22.20
2018-02-24T13:49:58.944Z,22.10
2018-02-24T13:52:26.017Z,22.00
2018-02-24T13:54:53.074Z,21.30
2018-02-24T13:57:20.062Z,21.50
2018-02-24T13:59:47.036Z,21.20
2018-02-24T14:02:14.015Z,21.00
2018-02-24T14:04:41.755Z,20.30
2018-02-24T14:07:08.746Z,20.30
2018-02-24T14:09:36.564Z,20.10
2018-02-24T14:12:03.543Z,20.10
2018-02-24T14:14:30.515Z,20.20
2018-02-24T14:16:57.540Z,19.80
2018-02-24T14:19:24.597Z,20.10
2018-02-24T14:21:51.576Z,19.80
2018-02-24T14:24:18.551Z,19.20
2018-02-24T14:26:45.529Z,18.80
2018-02-24T14:29:13.272Z,18.40
2018-02-24T14:31:40.257Z,18.40
2018-02-24T14:34:07.225Z,17.80
2018-02-24T14:36:34.975Z,15.80
2018-02-24T14:39:01.947Z,15.70
2018-02-24T14:41:29.779Z,14.10
2018-02-24T14:43:56.752Z,14.00
2018-02-24T14:46:23.796Z,13.40
2018-02-24T14:48:50.874Z,13.10
2018-02-24T14:51:17.859Z,12.70
2018-02-24T14:53:44.838Z,11.70
2018-02-24T14:56:12.677Z,10.00
2018-02-24T14:58:39.642Z,9.90
2018-02-24T15:01:06.620Z,9.30
2018-02-24T15:03:34.456Z,8.30
2018-02-24T15:06:01.435Z,8.30
2018-02-24T15:08:28.403Z,7.90
2018-02-24T15:10:55.453Z,7.50
2018-02-24T15:13:22.425Z,7.20
2018-02-24T15:15:49.443Z,7.00
2018-02-24T15:18:16.419Z,6.90
2018-02-24T15:20:43.393Z,6.90
2018-02-24T15:23:10.421Z,7.10
2018-02-24T15:25:37.396Z,7.10
2018-02-24T15:28:04.375Z,7.00
2018-02-24T15:30:31.419Z,6.70
2018-02-24T15:32:58.380Z,6.50
2018-02-24T15:35:25.415Z,6.30
2018-02-24T15:37:52.396Z,6.00
2018-02-24T15:40:19.427Z,5.80
2018-02-24T15:42:46.487Z,5.50
2018-02-24T15:45:13.463Z,5.30
2018-02-24T15:47:40.443Z,5.10
2018-02-24T15:50:07.415Z,5.00
2018-02-24T15:52:35.159Z,4.70
2018-02-24T15:55:02.136Z,4.70
2018-02-24T15:57:29.160Z,4.60
2018-02-24T15:59:56.136Z,4.50
2018-02-24T16:02:23.121Z,4.50
2018-02-24T16:04:50.075Z,4.40
2018-02-24T16:07:17.059Z,4.30
2018-02-24T16:09:44.791Z,4.20
2018-02-24T16:12:11.772Z,4.20
2018-02-24T16:14:39.647Z,4.10
2018-02-24T16:17:06.668Z,4.00
2018-02-24T16:19:33.640Z,4.00
2018-02-24T16:22:00.619Z,3.90
2018-02-24T16:24:27.588Z,3.80
2018-02-24T16:26:55.336Z,3.70
2018-02-24T16:29:22.371Z,3.70
2018-02-24T16:31:49.349Z,3.60
2018-02-24T16:34:16.320Z,3.50
2018-02-24T16:36:43.299Z,3.50
2018-02-24T16:39:11.035Z,3.40
2018-02-24T16:41:38.007Z,3.40
2018-02-24T16:44:04.975Z,3.30
2018-02-24T16:46:32.004Z,3.30
2018-02-24T16:48:59.062Z,3.20
2018-02-24T16:51:26.035Z,3.10
2018-02-24T16:53:53.005Z,3.10
2018-02-24T16:56:20.035Z,3.00
2018-02-24T16:58:47.095Z,3.00
2018-02-24T17:01:14.155Z,2.90
2018-02-24T17:03:41.211Z,2.80
2018-02-24T17:06:08.190Z,2.80
2018-02-24T17:08:35.238Z,2.80
2018-02-24T17:11:02.208Z,2.70
2018-02-24T17:13:29.188Z,2.70
2018-02-24T17:15:56.214Z,2.70
2018-02-24T17:18:23.299Z,2.60
2018-02-24T17:20:50.331Z,2.50
2018-02-24T17:23:17.402Z,2.50
2018-02-24T17:25:44.372Z,2.50
2018-02-24T17:28:11.407Z,2.50
2018-02-24T17:30:38.477Z,2.40
2018-02-24T17:33:05.455Z,2.40
2018-02-24T17:35:32.439Z,2.40
2018-02-24T17:37:59.403Z,2.40
2018-02-24T17:40:27.135Z,2.30
2018-02-24T17:42:54.116Z,2.30
2018-02-24T17:45:21.136Z,2.30
2018-02-24T17:47:48.116Z,2.20
2018-02-24T17:50:15.136Z,2.20
2018-02-24T17:52:42.851Z,2.20
2018-02-24T17:55:09.883Z,2.10
2018-02-24T17:57:36.863Z,2.10
2018-02-24T18:00:03.840Z,2.10
2018-02-24T18:02:30.837Z,2.10
2018-02-24T18:04:58.644Z,2.10
2018-02-24T18:07:25.703Z,2.00
2018-02-24T18:09:52.675Z,2.10
2018-02-24T18:12:19.652Z,2.00
2018-02-24T18:14:46.623Z,2.00
2018-02-24T18:17:13.636Z,2.00
2018-02-24T18:19:40.602Z,2.00
2018-02-24T18:22:07.575Z,2.00
2018-02-24T18:24:34.554Z,1.90
2018-02-24T18:27:01.608Z,1.90
2018-02-24T18:29:28.649Z,1.90
2018-02-24T18:31:55.611Z,1.90
2018-02-24T18:34:22.643Z,1.90
2018-02-24T18:36:49.620Z,1.90
2018-02-24T18:39:16.676Z,1.80
2018-02-24T18:41:43.657Z,1.80
2018-02-24T18:44:10.624Z,1.80
2018-02-24T18:46:38.359Z,1.70
2018-02-24T18:49:05.331Z,1.70
2018-02-24T18:51:32.299Z,1.70
2018-02-24T18:53:59.335Z,1.70
2018-02-24T18:56:26.400Z,1.70
2018-02-24T18:58:53.379Z,1.70
2018-02-24T19:01:20.350Z,1.70
2018-02-24T19:03:47.372Z,1.70
2018-02-24T19:06:14.349Z,1.60
2018-02-24T19:08:41.331Z,1.60
2018-02-24T19:11:08.299Z,1.60
2018-02-24T19:13:36.127Z,1.50
2018-02-24T19:16:03.104Z,1.50
2018-02-24T19:18:30.075Z,1.50
2018-02-24T19:20:57.047Z,1.50
2018-02-24T19:23:24.790Z,1.50
2018-02-24T19:25:51.759Z,1.50
2018-02-24T19:28:18.744Z,1.50
2018-02-24T19:30:46.477Z,1.40
2018-02-24T19:33:13.528Z,1.40
2018-02-24T19:35:40.591Z,1.40
2018-02-24T19:38:07.572Z,1.40
2018-02-24T19:40:34.581Z,1.40
2018-02-24T19:43:01.516Z,1.30
2018-02-24T19:45:29.256Z,1.30
2018-02-24T19:47:56.231Z,1.30
2018-02-24T19:50:23.194Z,1.30
2018-02-24T19:52:50.215Z,1.30
2018-02-24T19:55:17.275Z,1.30
2018-02-24T19:57:44.396Z,1.20
2018-02-24T20:00:11.407Z,1.20
2018-02-24T20:02:38.376Z,1.20
2018-02-24T20:05:05.411Z,1.20
2018-02-24T20:07:32.477Z,1.20
2018-02-24T20:09:59.528Z,1.10
2018-02-24T20:12:26.591Z,1.10
2018-02-24T20:14:53.653Z,1.10
2018-02-24T20:17:20.635Z,1.10
2018-02-24T20:19:47.603Z,1.10
2018-02-24T20:22:14.663Z,1.10
2018-02-24T20:24:41.600Z,1.00
2018-02-24T20:27:08.571Z,1.00
2018-02-24T20:29:35.552Z,1.00
2018-02-24T20:32:03.308Z,1.00
2018-02-24T20:34:30.339Z,0.90
2018-02-24T20:36:57.311Z,0.90
2018-02-24T20:39:24.363Z,0.90
2018-02-24T20:41:51.333Z,0.90
2018-02-24T20:44:18.302Z,0.90
2018-02-24T20:46:45.279Z,0.90
2018-02-24T20:49:12.259Z,0.90
2018-02-24T20:51:39.245Z,0.90
2018-02-24T20:54:06.227Z,0.90
2018-02-24T20:56:33.200Z,0.80
2018-02-24T20:59:00.223Z,0.80
2018-02-24T21:01:27.195Z,0.80
2018-02-24T21:03:54.172Z,0.80
2018-02-24T21:06:21.143Z,0.80
2018-02-24T21:08:48.163Z,0.80
2018-02-24T21:11:15.216Z,0.80
2018-02-24T21:13:42.384Z,0.80
2018-02-24T21:16:09.361Z,0.80
2018-02-24T21:18:36.335Z,0.80
2018-02-24T21:21:03.310Z,0.80
2018-02-24T21:23:31.050Z,0.70
2018-02-24T21:25:58.025Z,0.70
2018-02-24T21:28:25.004Z,0.70
2018-02-24T21:30:52.746Z,0.70
2018-02-24T21:33:19.796Z,0.70
2018-02-24T21:35:46.771Z,0.60
2018-02-24T21:38:15.260Z,0.60
2018-02-24T21:40:42.302Z,0.60
2018-02-24T21:43:09.275Z,0.60
2018-02-24T21:45:36.317Z,0.60
2018-02-24T21:48:03.890Z,0.60
2018-02-24T21:50:30.844Z,0.60
2018-02-24T21:52:57.824Z,0.60
2018-02-24T21:55:24.799Z,0.50
2018-02-24T21:57:51.779Z,0.50
2018-02-24T22:00:19.595Z,0.50
2018-02-24T22:02:46.571Z,0.50
2018-02-24T22:05:13.546Z,0.50
2018-02-24T22:07:40.523Z,0.50
2018-02-24T22:10:08.263Z,0.40
2018-02-24T22:12:35.256Z,0.40
2018-02-24T22:15:03.088Z,0.30
2018-02-24T22:17:30.148Z,0.30
2018-02-24T22:19:57.119Z,0.30
2018-02-24T22:22:24.093Z,0.30
2018-02-24T22:24:51.068Z,0.20
2018-02-24T22:27:18.033Z,0.20
2018-02-24T22:29:45.768Z,0.20
2018-02-24T22:32:12.752Z,0.10
2018-02-24T22:34:39.767Z,0.10
2018-02-24T22:37:06.831Z,0.10
2018-02-24T22:39:33.812Z,0.10
2018-02-24T22:42:00.789Z,0.10
2018-02-24T22:44:27.767Z,0.10
2018-02-24T22:46:55.499Z,0.10
2018-02-24T22:49:22.479Z,0.00
2018-02-24T22:51:49.499Z,0.00
2018-02-24T22:54:16.563Z,0.00
2018-02-24T22:56:43.543Z,0.00
2018-02-24T22:59:10.515Z,0.00
2018-02-24T23:01:37.488Z,0.00
2018-02-24T23:04:05.316Z,0.00
2018-02-24T23:06:32.284Z,0.00
2018-02-24T23:08:59.267Z,-0.10
2018-02-24T23:11:26.291Z,-0.10
2018-02-24T23:13:53.352Z,-0.10
2018-02-24T23:16:20.422Z,-0.10
2018-02-24T23:18:47.418Z,-0.10
2018-02-24T23:21:15.252Z,-0.20
2018-02-24T23:23:42.235Z,-0.20
2018-02-24T23:26:09.211Z,-0.20
2018-02-24T23:28:36.960Z,-0.30
2018-02-24T23:31:04.000Z,-0.30
2018-02-24T23:33:31.060Z,-0.20
2018-02-24T23:35:58.026Z,-0.30
2018-02-24T23:38:25.016Z,-0.30
2018-02-24T23:40:51.998Z,-0.30
2018-02-24T23:43:19.824Z,-0.40
2018-02-24T23:45:46.875Z,-0.40
2018-02-24T23:48:13.859Z,-0.40
2018-02-24T23:50:40.836Z,-0.40
2018-02-24T23:53:08.590Z,-0.40
2018-02-24T23:55:35.563Z,-0.50
2018-02-24T23:58:02.539Z,-0.50
